createdAt,value
2023-01-20T00:00:43.750Z,96603.41
2023-01-20T00:03:10.189Z,96601.78
2023-01-20T00:05:36.637Z,96605.63
2023-01-20T00:08:03.165Z,96601.59
2023-01-20T00:10:29.669Z,96615.91
2023-01-20T00:12:56.165Z,96618.22
2023-01-20T00:15:22.559Z,96616.56
2023-01-20T00:17:49.011Z,96618.28
2023-01-20T00:20:15.759Z,96622.50
2023-01-20T00:22:42.358Z,96627.59
2023-01-20T00:25:12.276Z,96634.66
2023-01-20T00:27:38.931Z,96636.94
2023-01-20T00:30:06.053Z,96635.72
2023-01-20T00:32:39.756Z,96633.06
2023-01-20T00:35:07.347Z,96630.16
2023-01-20T00:37:33.836Z,96643.56
2023-01-20T00:40:00.275Z,96641.56
2023-01-20T00:42:26.819Z,96641.69
2023-01-20T00:44:53.314Z,96636.38
2023-01-20T00:47:20.933Z,96643.69
2023-01-20T00:49:48.048Z,96644.97
2023-01-20T00:52:14.953Z,96642.53
2023-01-20T00:54:41.409Z,96648.00
2023-01-20T00:57:07.848Z,96648.63
2023-01-20T00:59:34.346Z,96654.50
2023-01-20T01:02:00.959Z,96653.50
2023-01-20T01:04:27.490Z,96661.72
2023-01-20T01:06:53.939Z,96658.78
2023-01-20T01:09:21.763Z,96659.41
2023-01-20T01:11:49.242Z,96662.81
2023-01-20T01:14:16.054Z,96661.34
2023-01-20T01:16:42.521Z,96666.16
2023-01-20T01:19:09.068Z,96671.38
2023-01-20T01:21:35.637Z,96672.03
2023-01-20T01:24:02.066Z,96676.69
2023-01-20T01:26:28.602Z,96677.59
2023-01-20T01:28:55.098Z,96687.94
2023-01-20T01:31:24.716Z,96684.34
2023-01-20T01:33:51.353Z,96693.31
2023-01-20T01:36:17.834Z,96691.50
2023-01-20T01:38:44.670Z,96684.63
2023-01-20T01:41:15.225Z,96703.66
2023-01-20T01:44:02.725Z,96696.59
2023-01-20T01:46:29.255Z,96700.16
2023-01-20T01:48:59.363Z,96707.66
2023-01-20T01:51:31.409Z,96707.81
2023-01-20T01:54:05.414Z,96706.19
2023-01-20T01:56:33.117Z,96705.88
2023-01-20T01:59:02.348Z,96713.31
2023-01-20T02:01:33.392Z,96711.41
2023-01-20T02:04:01.481Z,96716.81
2023-01-20T02:06:32.483Z,96714.50
2023-01-20T02:09:01.339Z,96714.84
2023-01-20T02:11:30.139Z,96712.59
2023-01-20T02:13:57.068Z,96714.22
2023-01-20T02:16:59.609Z,96718.81
2023-01-20T02:20:03.471Z,96726.34
2023-01-20T02:22:44.603Z,96721.78
2023-01-20T02:25:36.997Z,96717.63
2023-01-20T02:28:15.348Z,96723.44
2023-01-20T02:31:12.833Z,96725.03
2023-01-20T02:33:45.997Z,96733.03
2023-01-20T02:36:25.049Z,96730.22
2023-01-20T02:39:02.937Z,96736.44
2023-01-20T02:41:39.279Z,96728.06
2023-01-20T02:44:24.201Z,96731.81
2023-01-20T02:47:03.994Z,96735.81
2023-01-20T02:49:37.759Z,96742.41
2023-01-20T02:52:14.600Z,96738.59
2023-01-20T02:54:46.253Z,96740.22
2023-01-20T02:57:14.506Z,96739.63
2023-01-20T02:59:45.959Z,96741.88
2023-01-20T03:02:20.636Z,96743.69
2023-01-20T03:04:55.123Z,96748.75
2023-01-20T03:07:25.578Z,96747.19
2023-01-20T03:09:55.328Z,96755.81
2023-01-20T03:12:38.717Z,96758.06
2023-01-20T03:15:06.415Z,96761.09
2023-01-20T03:17:33.679Z,96765.94
2023-01-20T03:20:01.141Z,96771.22
2023-01-20T03:22:30.538Z,96768.78
2023-01-20T03:24:58.775Z,96776.56
2023-01-20T03:27:26.458Z,96771.81
2023-01-20T03:29:52.914Z,96767.06
2023-01-20T03:32:26.097Z,96770.88
2023-01-20T03:34:55.828Z,96768.88
2023-01-20T03:37:23.158Z,96774.28
2023-01-20T03:39:50.250Z,96772.88
2023-01-20T03:42:26.338Z,96776.69
2023-01-20T03:45:04.744Z,96782.94
2023-01-20T03:47:43.414Z,96780.19
2023-01-20T03:50:40.313Z,96777.69
2023-01-20T03:53:46.737Z,96778.41
2023-01-20T03:56:21.863Z,96786.28
2023-01-20T03:58:53.180Z,96791.41
2023-01-20T04:01:24.445Z,96779.47
2023-01-20T04:03:53.486Z,96782.09
2023-01-20T04:06:23.627Z,96778.00
2023-01-20T04:09:02.450Z,96785.81
2023-01-20T04:11:29.001Z,96788.47
2023-01-20T04:13:55.503Z,96789.75
2023-01-20T04:16:24.905Z,96788.91
2023-01-20T04:18:52.366Z,96797.63
2023-01-20T04:21:33.885Z,96799.22
2023-01-20T04:24:11.000Z,96803.78
2023-01-20T04:26:37.478Z,96805.81
2023-01-20T04:29:09.901Z,96807.63
2023-01-20T04:31:37.941Z,96808.81
2023-01-20T04:34:05.259Z,96813.34
2023-01-20T04:36:31.701Z,96818.63
2023-01-20T04:38:58.107Z,96819.63
2023-01-20T04:41:24.660Z,96825.47
2023-01-20T04:43:51.146Z,96824.97
2023-01-20T04:46:17.609Z,96829.13
2023-01-20T04:48:46.178Z,96826.16
2023-01-20T04:51:13.692Z,96829.91
2023-01-20T04:53:40.200Z,96831.19
2023-01-20T04:56:13.493Z,96840.16
2023-01-20T04:58:40.857Z,96835.06
2023-01-20T05:01:07.592Z,96848.41
2023-01-20T05:03:34.971Z,96843.09
2023-01-20T05:06:01.479Z,96845.19
2023-01-20T05:08:28.061Z,96849.91
2023-01-20T05:10:54.481Z,96854.56
2023-01-20T05:13:20.915Z,96853.72
2023-01-20T05:15:47.435Z,96861.66
2023-01-20T05:18:13.984Z,96861.78
2023-01-20T05:20:40.371Z,96870.91
2023-01-20T05:23:07.126Z,96862.63
2023-01-20T05:25:33.618Z,96873.56
2023-01-20T05:28:00.678Z,96880.84
2023-01-20T05:30:27.180Z,96883.63
2023-01-20T05:32:53.774Z,96880.81
2023-01-20T05:35:20.194Z,96894.38
2023-01-20T05:37:47.068Z,96887.59
2023-01-20T05:40:13.829Z,96890.91
2023-01-20T05:42:40.315Z,96894.06
2023-01-20T05:45:07.349Z,96899.50
2023-01-20T05:47:33.804Z,96894.25
2023-01-20T05:50:00.345Z,96903.88
2023-01-20T05:52:26.804Z,96908.53
2023-01-20T05:54:53.229Z,96901.78
2023-01-20T05:57:19.711Z,96904.22
2023-01-20T05:59:47.621Z,96899.94
2023-01-20T06:02:18.548Z,96907.41
2023-01-20T06:04:48.075Z,96910.81
2023-01-20T06:07:15.505Z,96909.31
2023-01-20T06:09:41.948Z,96914.81
2023-01-20T06:12:08.612Z,96909.03
2023-01-20T06:14:35.099Z,96922.47
2023-01-20T06:17:01.599Z,96918.50
2023-01-20T06:19:28.128Z,96918.50
2023-01-20T06:21:54.587Z,96921.78
2023-01-20T06:24:21.078Z,96931.66
2023-01-20T06:26:50.373Z,96940.78
2023-01-20T06:29:16.824Z,96936.00
2023-01-20T06:31:44.755Z,96937.63
2023-01-20T06:34:12.066Z,96943.44
2023-01-20T06:36:39.046Z,96950.72
2023-01-20T06:39:05.611Z,96947.91
2023-01-20T06:41:32.048Z,96954.00
2023-01-20T06:43:58.573Z,96955.16
2023-01-20T06:46:25.186Z,96962.44
2023-01-20T06:48:52.117Z,96960.09
2023-01-20T06:51:20.297Z,96959.78
2023-01-20T06:53:47.528Z,96960.94
2023-01-20T06:56:15.382Z,96968.56
2023-01-20T06:58:42.465Z,96967.56
2023-01-20T07:01:14.936Z,96966.06
2023-01-20T07:03:45.667Z,96976.97
2023-01-20T07:06:26.951Z,96985.88
2023-01-20T07:08:53.673Z,96995.25
2023-01-20T07:11:20.198Z,96998.38
2023-01-20T07:13:46.662Z,97001.16
2023-01-20T07:16:15.697Z,97003.28
2023-01-20T07:18:43.675Z,97005.84
2023-01-20T07:21:11.573Z,97012.28
2023-01-20T07:23:38.080Z,97018.53
2023-01-20T07:26:07.175Z,97019.19
2023-01-20T07:28:34.387Z,97029.22
2023-01-20T07:31:16.273Z,97031.34
2023-01-20T07:33:43.597Z,97033.44
2023-01-20T07:36:11.338Z,97039.81
2023-01-20T07:38:38.749Z,97048.22
2023-01-20T07:41:08.454Z,97041.06
2023-01-20T07:43:34.935Z,97047.69
2023-01-20T07:46:03.670Z,97049.22
2023-01-20T07:48:32.053Z,97051.91
2023-01-20T07:51:05.000Z,97051.63
2023-01-20T07:53:40.392Z,97058.06
2023-01-20T07:56:11.064Z,97068.28
2023-01-20T07:58:38.305Z,97073.69
2023-01-20T08:01:14.139Z,97067.44
2023-01-20T08:03:40.911Z,97080.59
2023-01-20T08:06:10.024Z,97081.78
2023-01-20T08:08:36.939Z,97081.81
2023-01-20T08:11:04.751Z,97080.09
2023-01-20T08:13:31.907Z,97077.97
2023-01-20T08:16:04.389Z,97079.59
2023-01-20T08:18:32.359Z,97085.03
2023-01-20T08:20:59.800Z,97097.25
2023-01-20T08:23:26.531Z,97093.50
2023-01-20T08:26:01.973Z,97092.97
2023-01-20T08:28:30.234Z,97094.31
2023-01-20T08:31:05.255Z,97100.47
2023-01-20T08:33:31.937Z,97108.03
2023-01-20T08:36:04.500Z,97107.41
2023-01-20T08:38:31.001Z,97103.16
2023-01-20T08:40:57.404Z,97111.44
2023-01-20T08:43:23.847Z,97120.19
2023-01-20T08:45:59.635Z,97126.47
2023-01-20T08:48:26.277Z,97128.31
2023-01-20T08:50:52.780Z,97128.31
2023-01-20T08:53:19.302Z,97122.72
2023-01-20T08:56:03.228Z,97128.81
2023-01-20T08:58:30.672Z,97133.31
2023-01-20T09:00:57.178Z,97126.84
2023-01-20T09:03:23.964Z,97126.00
2023-01-20T09:05:50.853Z,97129.47
2023-01-20T09:08:17.888Z,97129.28
2023-01-20T09:10:45.197Z,97129.09
2023-01-20T09:13:12.004Z,97131.53
2023-01-20T09:15:38.847Z,97129.88
2023-01-20T09:18:05.400Z,97141.09
2023-01-20T09:20:31.859Z,97131.09
2023-01-20T09:23:02.827Z,97138.53
2023-01-20T09:25:29.432Z,97132.84
2023-01-20T09:27:55.916Z,97143.88
2023-01-20T09:30:22.360Z,97134.69
2023-01-20T09:32:53.063Z,97145.94
2023-01-20T09:35:19.488Z,97146.72
2023-01-20T09:38:04.715Z,97155.81
2023-01-20T09:41:15.952Z,97153.69
2023-01-20T09:44:14.803Z,97158.84
2023-01-20T09:47:09.684Z,97159.13
2023-01-20T09:50:04.525Z,97166.03
2023-01-20T09:52:55.621Z,97164.13
2023-01-20T09:55:31.875Z,97165.25
2023-01-20T09:58:28.634Z,97158.09
2023-01-20T10:01:21.181Z,97171.53
2023-01-20T10:03:47.731Z,97172.16
2023-01-20T10:06:30.011Z,97172.72
2023-01-20T10:09:21.139Z,97176.59
2023-01-20T10:11:49.379Z,97178.84
2023-01-20T10:14:23.693Z,97177.38
2023-01-20T10:17:13.786Z,97174.28
2023-01-20T10:19:59.039Z,97188.47
2023-01-20T10:22:46.462Z,97184.72
2023-01-20T10:25:17.316Z,97170.72
2023-01-20T10:27:55.285Z,97179.06
2023-01-20T10:30:25.656Z,97182.72
2023-01-20T10:33:03.752Z,97180.22
2023-01-20T10:35:36.798Z,97183.63
2023-01-20T10:38:07.741Z,97191.28
2023-01-20T10:40:47.513Z,97185.56
2023-01-20T10:43:16.638Z,97180.03
2023-01-20T10:46:12.508Z,97183.16
2023-01-20T10:48:57.930Z,97181.31
2023-01-20T10:51:56.295Z,97182.59
2023-01-20T10:54:35.628Z,97187.47
2023-01-20T10:57:05.574Z,97188.56
2023-01-20T10:59:41.654Z,97184.69
2023-01-20T11:02:19.074Z,97192.22
2023-01-20T11:04:52.704Z,97188.56
2023-01-20T11:07:19.677Z,97195.53
2023-01-20T11:09:48.776Z,97189.38
2023-01-20T11:12:28.816Z,97195.59
2023-01-20T11:14:59.054Z,97195.97
2023-01-20T11:17:26.409Z,97196.75
2023-01-20T11:19:52.924Z,97195.53
2023-01-20T11:22:34.277Z,97196.44
2023-01-20T11:25:04.285Z,97194.88
2023-01-20T11:27:46.001Z,97193.09
2023-01-20T11:30:32.315Z,97197.25
2023-01-20T11:33:25.324Z,97200.38
2023-01-20T11:35:59.719Z,97195.56
2023-01-20T11:38:29.149Z,97205.25
2023-01-20T11:40:57.422Z,97200.66
2023-01-20T11:43:37.852Z,97200.13
2023-01-20T11:46:22.593Z,97201.50
2023-01-20T11:48:49.969Z,97204.53
2023-01-20T11:51:25.308Z,97203.69
2023-01-20T11:54:08.003Z,97208.81
2023-01-20T11:56:41.894Z,97209.34
2023-01-20T11:59:31.654Z,97210.56
2023-01-20T12:02:23.402Z,97204.41
2023-01-20T12:05:00.530Z,97207.59
2023-01-20T12:07:44.541Z,97209.22
2023-01-20T12:10:22.437Z,97204.34
2023-01-20T12:12:57.120Z,97211.22
2023-01-20T12:15:27.367Z,97209.47
2023-01-20T12:17:59.381Z,97217.44
2023-01-20T12:20:35.480Z,97219.81
2023-01-20T12:23:46.182Z,97226.00
2023-01-20T12:26:14.916Z,97223.97
2023-01-20T12:28:45.960Z,97222.69
2023-01-20T12:31:13.652Z,97221.03
2023-01-20T12:33:44.025Z,97219.56
2023-01-20T12:36:25.023Z,97225.50
2023-01-20T12:39:26.941Z,97217.50
2023-01-20T12:42:17.567Z,97221.91
2023-01-20T12:44:50.500Z,97222.59
2023-01-20T12:47:30.659Z,97224.75
2023-01-20T12:50:19.039Z,97233.53
2023-01-20T12:53:16.993Z,97233.06
2023-01-20T12:56:10.492Z,97231.56
2023-01-20T12:59:01.362Z,97235.38
2023-01-20T13:01:38.647Z,97233.56
2023-01-20T13:04:40.222Z,97227.38
2023-01-20T13:07:27.913Z,97225.31
2023-01-20T13:09:54.340Z,97225.13
2023-01-20T13:12:43.461Z,97231.34
2023-01-20T13:15:22.669Z,97227.84
2023-01-20T13:18:23.635Z,97225.84
2023-01-20T13:20:52.310Z,97230.69
2023-01-20T13:23:24.689Z,97235.53
2023-01-20T13:25:51.971Z,97232.50
2023-01-20T13:28:24.890Z,97231.13
2023-01-20T13:30:54.640Z,97231.31
2023-01-20T13:33:37.840Z,97232.56
2023-01-20T13:36:22.514Z,97227.69
2023-01-20T13:38:51.496Z,97234.41
2023-01-20T13:41:51.502Z,97235.19
2023-01-20T13:44:37.512Z,97228.53
2023-01-20T13:47:08.486Z,97230.66
2023-01-20T13:49:43.854Z,97241.59
2023-01-20T13:52:11.794Z,97244.09
2023-01-20T13:54:42.961Z,97238.66
2023-01-20T13:57:32.675Z,97242.09
2023-01-20T13:59:59.230Z,97237.97
2023-01-20T14:02:28.955Z,97241.13
2023-01-20T14:04:56.157Z,97249.91
2023-01-20T14:07:27.893Z,97255.22
2023-01-20T14:09:55.340Z,97255.41
2023-01-20T14:12:22.281Z,97252.56
2023-01-20T14:14:50.170Z,97251.41
2023-01-20T14:17:22.731Z,97260.03
2023-01-20T14:19:54.891Z,97258.09
2023-01-20T14:22:29.995Z,97256.16
2023-01-20T14:24:59.051Z,97259.22
2023-01-20T14:27:35.348Z,97266.63
2023-01-20T14:30:25.685Z,97263.88
2023-01-20T14:32:53.057Z,97272.50
2023-01-20T14:35:30.972Z,97258.63
2023-01-20T14:37:58.817Z,97265.16
2023-01-20T14:40:28.534Z,97271.25
2023-01-20T14:43:00.507Z,97276.88
2023-01-20T14:45:29.281Z,97275.41
2023-01-20T14:47:57.739Z,97285.47
2023-01-20T14:50:25.063Z,97275.25
2023-01-20T14:52:51.826Z,97282.44
2023-01-20T14:55:43.358Z,97279.59
2023-01-20T14:58:15.783Z,97273.97
2023-01-20T15:00:45.091Z,97287.31
2023-01-20T15:03:20.193Z,97284.25
2023-01-20T15:05:58.252Z,97281.63
2023-01-20T15:08:53.572Z,97280.25
2023-01-20T15:11:28.934Z,97288.31
2023-01-20T15:13:57.089Z,97293.44
2023-01-20T15:16:23.517Z,97293.41
2023-01-20T15:19:15.285Z,97302.41
2023-01-20T15:21:44.044Z,97305.78
2023-01-20T15:24:18.534Z,97294.69
2023-01-20T15:26:46.738Z,97302.72
2023-01-20T15:29:30.178Z,97305.50
2023-01-20T15:31:59.166Z,97305.59
2023-01-20T15:34:26.461Z,97302.84
2023-01-20T15:36:54.111Z,97303.88
2023-01-20T15:39:23.066Z,97307.88
2023-01-20T15:41:57.023Z,97304.56
2023-01-20T15:44:25.249Z,97299.75
2023-01-20T15:46:52.796Z,97307.59
2023-01-20T15:49:19.931Z,97313.44
2023-01-20T15:51:46.664Z,97307.91
2023-01-20T15:54:15.648Z,97306.91
2023-01-20T15:56:43.216Z,97308.13
2023-01-20T15:59:17.857Z,97318.50
2023-01-20T16:01:49.854Z,97318.84
2023-01-20T16:04:16.541Z,97324.00
2023-01-20T16:06:43.281Z,97325.50
2023-01-20T16:09:20.792Z,97319.34
2023-01-20T16:11:47.574Z,97322.19
2023-01-20T16:14:14.055Z,97325.19
2023-01-20T16:16:41.007Z,97332.66
2023-01-20T16:19:09.532Z,97335.94
2023-01-20T16:21:35.944Z,97328.19
2023-01-20T16:24:02.346Z,97332.94
2023-01-20T16:26:31.333Z,97338.56
2023-01-20T16:28:58.547Z,97344.69
2023-01-20T16:31:26.481Z,97345.31
2023-01-20T16:33:54.309Z,97345.94
2023-01-20T16:36:22.761Z,97346.72
2023-01-20T16:38:50.317Z,97345.88
2023-01-20T16:41:21.226Z,97350.59
2023-01-20T16:43:48.388Z,97357.81
2023-01-20T16:46:20.954Z,97352.00
2023-01-20T16:48:47.742Z,97353.22
2023-01-20T16:51:15.592Z,97353.59
2023-01-20T16:53:42.208Z,97355.88
2023-01-20T16:56:16.112Z,97358.03
2023-01-20T16:58:43.732Z,97363.13
2023-01-20T17:01:13.136Z,97371.19
2023-01-20T17:03:42.599Z,97375.25
2023-01-20T17:06:17.320Z,97367.06
2023-01-20T17:08:48.907Z,97380.25
2023-01-20T17:11:23.968Z,97378.31
2023-01-20T17:13:50.824Z,97386.53
2023-01-20T17:16:18.479Z,97393.06
2023-01-20T17:18:52.157Z,97388.28
2023-01-20T17:21:20.653Z,97389.63
2023-01-20T17:23:55.541Z,97392.78
2023-01-20T17:26:23.611Z,97395.38
2023-01-20T17:28:54.799Z,97402.50
2023-01-20T17:31:22.505Z,97402.38
2023-01-20T17:33:49.619Z,97404.00
2023-01-20T17:36:16.822Z,97397.06
2023-01-20T17:38:43.749Z,97398.78
2023-01-20T17:41:11.497Z,97399.94
2023-01-20T17:43:47.959Z,97405.94
2023-01-20T17:46:23.182Z,97399.72
2023-01-20T17:48:50.772Z,97396.72
2023-01-20T17:51:22.611Z,97401.53
2023-01-20T17:53:50.315Z,97407.03
2023-01-20T17:56:19.147Z,97404.91
2023-01-20T17:58:47.223Z,97402.84
2023-01-20T18:01:19.437Z,97398.91
2023-01-20T18:03:50.337Z,97410.72
2023-01-20T18:06:19.107Z,97404.16
2023-01-20T18:08:51.121Z,97407.72
2023-01-20T18:11:21.468Z,97404.63
2023-01-20T18:13:49.354Z,97407.13
2023-01-20T18:16:18.447Z,97413.94
2023-01-20T18:18:46.131Z,97404.66
2023-01-20T18:21:19.947Z,97421.00
2023-01-20T18:23:47.803Z,97416.22
2023-01-20T18:26:17.237Z,97410.16
2023-01-20T18:28:44.186Z,97418.97
2023-01-20T18:31:14.175Z,97416.22
2023-01-20T18:33:47.473Z,97413.97
2023-01-20T18:36:17.689Z,97418.06
2023-01-20T18:38:49.692Z,97417.88
2023-01-20T18:41:16.275Z,97413.31
2023-01-20T18:43:42.813Z,97420.66
2023-01-20T18:46:09.859Z,97424.66
2023-01-20T18:48:40.760Z,97422.75
2023-01-20T18:51:10.041Z,97422.81
2023-01-20T18:53:36.763Z,97424.84
2023-01-20T18:56:06.740Z,97425.88
2023-01-20T18:58:33.678Z,97426.53
2023-01-20T19:01:05.611Z,97422.56
2023-01-20T19:03:32.361Z,97423.09
2023-01-20T19:06:11.036Z,97424.72
2023-01-20T19:08:39.610Z,97428.88
2023-01-20T19:11:10.050Z,97429.72
2023-01-20T19:13:36.541Z,97431.38
2023-01-20T19:16:03.116Z,97432.53
2023-01-20T19:18:30.038Z,97434.16
2023-01-20T19:20:56.567Z,97436.31
2023-01-20T19:23:22.993Z,97434.47
2023-01-20T19:26:03.438Z,97439.63
2023-01-20T19:28:29.880Z,97436.66
2023-01-20T19:31:06.989Z,97444.09
2023-01-20T19:33:34.619Z,97438.97
2023-01-20T19:36:02.853Z,97446.41
2023-01-20T19:38:29.459Z,97442.75
2023-01-20T19:41:03.265Z,97442.75
2023-01-20T19:43:29.649Z,97443.09
2023-01-20T19:45:56.267Z,97437.66
2023-01-20T19:48:22.924Z,97437.81
2023-01-20T19:50:49.364Z,97441.13
2023-01-20T19:53:15.787Z,97439.31
2023-01-20T19:55:42.241Z,97442.44
2023-01-20T19:58:08.655Z,97441.59
2023-01-20T20:00:35.128Z,97446.75
2023-01-20T20:03:02.895Z,97440.47
2023-01-20T20:05:29.371Z,97445.63
2023-01-20T20:07:55.862Z,97437.16
2023-01-20T20:10:22.355Z,97439.31
2023-01-20T20:12:48.793Z,97442.94
2023-01-20T20:15:15.339Z,97443.63
2023-01-20T20:17:41.791Z,97442.59
2023-01-20T20:20:08.991Z,97447.25
2023-01-20T20:22:35.441Z,97451.09
2023-01-20T20:25:01.915Z,97457.19
2023-01-20T20:27:28.561Z,97461.34
2023-01-20T20:29:58.986Z,97459.69
2023-01-20T20:32:27.334Z,97463.03
2023-01-20T20:34:53.948Z,97465.00
2023-01-20T20:37:20.482Z,97460.84
2023-01-20T20:39:46.884Z,97463.81
2023-01-20T20:42:13.289Z,97470.63
2023-01-20T20:44:40.881Z,97463.50
2023-01-20T20:47:07.325Z,97460.84
2023-01-20T20:49:33.793Z,97466.00
2023-01-20T20:52:00.296Z,97466.16
2023-01-20T20:54:26.779Z,97464.78
2023-01-20T20:56:53.251Z,97462.63
2023-01-20T20:59:24.583Z,97461.63
2023-01-20T21:01:52.210Z,97457.66
2023-01-20T21:04:18.686Z,97464.34
2023-01-20T21:06:45.241Z,97455.03
2023-01-20T21:09:11.746Z,97463.03
2023-01-20T21:11:38.649Z,97458.53
2023-01-20T21:14:05.241Z,97469.47
2023-01-20T21:16:31.738Z,97468.78
2023-01-20T21:18:59.055Z,97460.03
2023-01-20T21:21:25.980Z,97472.28
2023-01-20T21:23:54.743Z,97473.78
2023-01-20T21:26:22.612Z,97476.09
2023-01-20T21:28:49.569Z,97470.94
2023-01-20T21:31:20.900Z,97469.06
2023-01-20T21:33:53.395Z,97474.00
2023-01-20T21:36:20.569Z,97476.81
2023-01-20T21:38:47.127Z,97484.81
2023-01-20T21:41:14.880Z,97482.34
2023-01-20T21:44:02.031Z,97481.94
2023-01-20T21:46:39.773Z,97485.03
2023-01-20T21:49:26.450Z,97484.34
2023-01-20T21:52:12.388Z,97497.56
2023-01-20T21:54:40.463Z,97494.34
2023-01-20T21:57:06.941Z,97497.47
2023-01-20T21:59:33.430Z,97504.50
2023-01-20T22:01:59.976Z,97506.69
2023-01-20T22:04:26.505Z,97503.19
2023-01-20T22:06:52.969Z,97512.72
2023-01-20T22:09:19.441Z,97514.72
2023-01-20T22:11:45.931Z,97508.50
2023-01-20T22:14:12.530Z,97516.34
2023-01-20T22:16:39.000Z,97520.72
2023-01-20T22:19:05.670Z,97523.00
2023-01-20T22:21:32.862Z,97515.84
2023-01-20T22:24:02.471Z,97520.28
2023-01-20T22:26:28.930Z,97525.00
2023-01-20T22:28:55.430Z,97517.13
2023-01-20T22:31:23.912Z,97534.47
2023-01-20T22:33:54.954Z,97518.88
2023-01-20T22:36:22.836Z,97529.91
2023-01-20T22:38:50.744Z,97532.97
2023-01-20T22:41:18.010Z,97535.34
2023-01-20T22:43:44.734Z,97534.88
2023-01-20T22:46:13.633Z,97539.69
2023-01-20T22:48:41.039Z,97536.25
2023-01-20T22:51:19.725Z,97550.19
2023-01-20T22:53:47.066Z,97551.16
2023-01-20T22:56:18.913Z,97543.94
2023-01-20T22:58:45.547Z,97543.97
2023-01-20T23:01:17.243Z,97543.84
2023-01-20T23:03:44.940Z,97548.00
2023-01-20T23:06:11.788Z,97556.78
2023-01-20T23:08:38.857Z,97555.56
2023-01-20T23:11:10.921Z,97554.47
2023-01-20T23:13:38.619Z,97550.81
2023-01-20T23:16:09.779Z,97548.69
2023-01-20T23:18:36.608Z,97543.13
2023-01-20T23:21:05.713Z,97542.91
2023-01-20T23:23:32.595Z,97542.06
2023-01-20T23:26:26.470Z,97545.16
2023-01-20T23:28:53.893Z,97551.91
2023-01-20T23:31:21.768Z,97553.53
2023-01-20T23:33:48.362Z,97553.53
2023-01-20T23:36:18.348Z,97563.00
2023-01-20T23:38:45.321Z,97558.66
2023-01-20T23:41:13.661Z,97550.03
2023-01-20T23:43:41.051Z,97558.63
2023-01-20T23:46:08.076Z,97562.31
2023-01-20T23:48:35.043Z,97562.22
2023-01-20T23:51:02.528Z,97566.63
2023-01-20T23:53:31.280Z,97570.66
2023-01-20T23:56:10.637Z,97570.66
2023-01-20T23:58:37.153Z,97572.00
